Time;durP1;ratioP1;P1;durP2;ratioP2;P2;SDS_P1;SDS_P2;PMS_P1;PMS_P2;Temp;Humidity;BMP_temperature;BMP_pressure;BME280_temperature;BME280_humidity;BME280_pressure;Samples;Min_cycle;Max_cycle;Signal;HPM_P1;HPM_P2
2021/08/01 00:00:51;;;;;;;7.30;4.68;;;16.10;99.90;;;;;;5070740;28;20398;-53
2021/08/01 00:03:16;;;;;;;7.03;5.05;;;16.10;99.90;;;;;;5070236;28;20032;-54
2021/08/01 00:05:43;;;;;;;5.43;4.55;;;16.00;99.90;;;;;;5070410;28;20036;-53
2021/08/01 00:08:09;;;;;;;6.57;4.50;;;16.10;99.90;;;;;;5070672;28;20094;-53
2021/08/01 00:10:34;;;;;;;7.20;5.13;;;16.00;99.90;;;;;;5069149;28;20029;-53
2021/08/01 00:13:00;;;;;;;5.55;4.28;;;16.00;99.90;;;;;;5070236;28;20032;-53
2021/08/01 00:15:25;;;;;;;5.53;4.32;;;16.00;99.90;;;;;;5069800;28;20510;-54
2021/08/01 00:17:51;;;;;;;8.23;4.35;;;15.90;99.90;;;;;;5070458;28;20029;-53
2021/08/01 00:20:16;;;;;;;5.70;5.07;;;15.90;99.90;;;;;;5070230;28;20467;-53
2021/08/01 00:22:42;;;;;;;8.30;5.47;;;15.90;99.90;;;;;;5070321;28;20466;-53
2021/08/01 00:25:09;;;;;;;7.07;4.85;;;15.90;99.90;;;;;;5069781;28;20054;-53
2021/08/01 00:27:35;;;;;;;6.43;5.20;;;15.90;99.90;;;;;;5070505;28;20111;-54
2021/08/01 00:30:05;;;;;;;5.40;4.70;;;15.80;99.90;;;;;;5070156;28;20047;-54
2021/08/01 00:32:31;;;;;;;7.72;4.72;;;15.90;99.90;;;;;;5070015;28;20105;-53
2021/08/01 00:34:57;;;;;;;8.98;5.70;;;15.80;99.90;;;;;;5069345;28;20482;-54
2021/08/01 00:37:23;;;;;;;9.40;4.80;;;15.80;99.90;;;;;;5070156;28;20031;-54
2021/08/01 00:39:50;;;;;;;6.50;4.60;;;15.80;99.90;;;;;;5069918;28;20070;-54
2021/08/01 00:42:16;;;;;;;8.18;5.20;;;15.80;99.90;;;;;;5070163;28;20064;-54
2021/08/01 00:44:42;;;;;;;9.43;6.00;;;15.80;99.90;;;;;;5069179;28;20509;-54
2021/08/01 00:47:07;;;;;;;5.72;4.22;;;15.80;99.90;;;;;;5069709;28;20416;-53
2021/08/01 00:49:34;;;;;;;7.50;4.63;;;15.80;99.90;;;;;;5069897;28;20063;-54
2021/08/01 00:51:59;;;;;;;9.30;5.15;;;15.80;99.90;;;;;;5069845;28;20135;-54
2021/08/01 00:54:25;;;;;;;7.25;5.25;;;15.80;99.90;;;;;;5069217;28;20518;-54
2021/08/01 00:56:51;;;;;;;5.93;4.97;;;15.70;99.90;;;;;;5069737;28;20024;-53
2021/08/01 00:59:18;;;;;;;6.90;4.82;;;15.70;99.90;;;;;;5069522;28;20162;-53
2021/08/01 01:01:59;;;;;;;7.30;5.18;;;15.70;99.90;;;;;;5068203;28;20028;-54
2021/08/01 01:04:53;;;;;;;7.80;5.80;;;15.70;99.90;;;;;;5068843;28;20020;-54
2021/08/01 01:07:39;;;;;;;7.25;5.32;;;15.60;99.90;;;;;;5069364;28;20115;-53
2021/08/01 01:10:14;;;;;;;7.43;5.40;;;15.60;99.90;;;;;;5069239;28;20470;-53
2021/08/01 01:12:45;;;;;;;7.82;5.40;;;15.60;99.90;;;;;;5069143;28;20414;-53
2021/08/01 01:15:13;;;;;;;;;;;15.50;99.90;;;;;;5069062;28;20156;-53
2021/08/01 01:17:43;;;;;;;7.22;5.15;;;15.60;99.90;;;;;;5069411;28;19905;-53
2021/08/01 01:20:14;;;;;;;10.80;5.53;;;15.50;99.90;;;;;;5069157;28;20032;-53
2021/08/01 01:22:44;;;;;;;;;;;15.50;99.90;;;;;;5069667;28;20024;-53
2021/08/01 01:25:35;;;;;;;8.38;5.57;;;15.50;99.90;;;;;;5068448;28;19904;-53
2021/08/01 01:28:26;;;;;;;8.00;5.95;;;15.50;99.90;;;;;;5069061;28;20509;-54
2021/08/01 01:31:14;;;;;;;9.68;5.35;;;15.50;99.90;;;;;;5069434;28;20444;-53
2021/08/01 01:33:43;;;;;;;6.57;5.43;;;15.40;99.90;;;;;;5068552;28;20064;-54
2021/08/01 01:36:09;;;;;;;8.48;4.93;;;15.40;99.90;;;;;;5068919;28;20024;-53
2021/08/01 01:38:35;;;;;;;5.82;5.22;;;15.30;99.90;;;;;;5068918;28;20328;-53
2021/08/01 01:41:02;;;;;;;8.52;5.25;;;15.30;99.90;;;;;;5069095;28;20040;-53
2021/08/01 01:43:28;;;;;;;8.05;4.72;;;15.30;99.90;;;;;;5066931;28;20031;-53
2021/08/01 01:45:54;;;;;;;11.25;5.68;;;15.30;99.90;;;;;;5068940;28;20040;-53
2021/08/01 01:48:20;;;;;;;8.23;5.22;;;15.30;99.90;;;;;;5067236;28;20071;-53
2021/08/01 01:50:46;;;;;;;10.60;5.20;;;15.20;99.90;;;;;;5067421;28;20078;-53
2021/08/01 01:53:12;;;;;;;6.15;5.25;;;15.20;99.90;;;;;;5068221;28;20232;-53
2021/08/01 01:55:40;;;;;;;9.45;5.65;;;15.20;99.90;;;;;;5068816;28;20112;-53
2021/08/01 01:58:11;;;;;;;9.35;5.30;;;15.20;99.90;;;;;;5068358;28;20147;-53
2021/08/01 02:00:38;;;;;;;8.75;5.95;;;15.20;99.90;;;;;;5068530;28;20383;-53
2021/08/01 02:03:04;;;;;;;6.50;5.30;;;15.10;99.90;;;;;;5068568;28;20021;-54
2021/08/01 02:05:29;;;;;;;6.85;5.53;;;15.10;99.90;;;;;;5068179;28;20489;-53
2021/08/01 02:07:55;;;;;;;8.80;5.32;;;15.10;99.90;;;;;;5068497;28;20386;-53
2021/08/01 02:10:47;;;;;;;9.10;6.20;;;15.10;99.90;;;;;;5068272;28;20332;-54
2021/08/01 02:13:17;;;;;;;8.20;5.70;;;15.10;99.90;;;;;;5067977;28;20463;-53
2021/08/01 02:15:51;;;;;;;8.52;6.40;;;15.20;99.90;;;;;;5068336;28;20437;-53
2021/08/01 02:18:51;;;;;;;8.93;6.50;;;15.10;99.90;;;;;;5068526;28;20032;-53
2021/08/01 02:21:19;;;;;;;12.43;6.35;;;15.20;99.90;;;;;;5068418;28;20021;-53
2021/08/01 02:23:47;;;;;;;6.53;5.22;;;15.10;99.90;;;;;;5067982;28;20101;-53
2021/08/01 02:26:16;;;;;;;10.10;5.93;;;15.10;99.90;;;;;;5068340;28;20028;-53
2021/08/01 02:28:44;;;;;;;10.88;6.30;;;15.10;99.90;;;;;;5068120;28;20036;-53
2021/08/01 02:31:11;;;;;;;8.65;6.38;;;15.10;99.90;;;;;;5068304;28;20151;-53
2021/08/01 02:33:37;;;;;;;11.35;6.40;;;15.10;99.90;;;;;;5066087;28;20195;-53
2021/08/01 02:36:06;;;;;;;11.80;6.47;;;15.10;99.90;;;;;;5067045;28;20608;-53
2021/08/01 02:38:33;;;;;;;9.95;7.00;;;15.00;99.90;;;;;;5068490;28;20055;-53
2021/08/01 02:41:04;;;;;;;7.70;6.03;;;15.00;99.90;;;;;;5068680;28;20630;-53
2021/08/01 02:43:31;;;;;;;9.95;6.53;;;15.00;99.90;;;;;;5066301;28;20036;-53
2021/08/01 02:45:57;;;;;;;8.90;6.30;;;15.00;99.90;;;;;;5066894;28;20271;-53
2021/08/01 02:48:25;;;;;;;8.55;6.97;;;15.00;99.90;;;;;;5068192;28;20033;-53
2021/08/01 02:50:58;;;;;;;8.00;7.00;;;15.00;99.90;;;;;;5068124;28;20020;-54
2021/08/01 02:53:24;;;;;;;10.45;6.93;;;15.00;99.90;;;;;;5066087;28;20036;-53
2021/08/01 02:55:53;;;;;;;8.30;6.25;;;15.00;99.90;;;;;;5067980;28;20056;-53
2021/08/01 02:58:19;;;;;;;11.68;6.72;;;15.00;99.90;;;;;;5067946;28;20028;-53
2021/08/01 03:00:47;;;;;;;9.77;7.32;;;15.00;99.90;;;;;;5066643;28;20032;-53
2021/08/01 03:03:15;;;;;;;10.02;6.45;;;14.90;99.90;;;;;;5067727;28;20033;-53
2021/08/01 03:05:42;;;;;;;13.52;7.03;;;14.90;99.90;;;;;;5067955;28;20028;-53
2021/08/01 03:08:12;;;;;;;11.75;6.78;;;14.90;99.90;;;;;;5068087;28;20032;-53
2021/08/01 03:10:44;;;;;;;14.00;6.78;;;15.00;99.90;;;;;;5068521;28;20017;-53
2021/08/01 03:13:10;;;;;;;10.40;7.43;;;14.90;99.90;;;;;;5071237;28;20577;-53
2021/08/01 03:15:36;;;;;;;15.40;7.28;;;14.90;99.90;;;;;;5071174;28;20108;-53
2021/08/01 03:18:02;;;;;;;8.35;5.93;;;14.90;99.90;;;;;;5070208;28;20021;-53
2021/08/01 03:20:28;;;;;;;13.38;6.80;;;14.90;99.90;;;;;;5070366;28;20050;-53
2021/08/01 03:22:53;;;;;;;10.48;6.10;;;14.90;99.90;;;;;;5071319;28;20062;-53
2021/08/01 03:25:19;;;;;;;9.73;7.22;;;14.90;99.90;;;;;;5070747;28;20075;-53
2021/08/01 03:27:44;;;;;;;10.55;6.60;;;14.90;99.90;;;;;;5069861;28;20449;-53
2021/08/01 03:30:10;;;;;;;11.60;7.00;;;14.80;99.90;;;;;;5071266;28;20055;-53
2021/08/01 03:32:36;;;;;;;8.00;6.97;;;14.80;99.90;;;;;;5071247;28;20338;-53
2021/08/01 03:35:01;;;;;;;7.53;6.25;;;14.80;99.90;;;;;;5070491;28;20580;-54
2021/08/01 03:37:27;;;;;;;13.27;7.95;;;14.80;99.90;;;;;;5071257;28;20067;-53
2021/08/01 03:39:53;;;;;;;9.80;7.93;;;14.70;99.90;;;;;;5071547;28;20293;-53
2021/08/01 03:42:19;;;;;;;10.38;7.55;;;14.70;99.90;;;;;;5071334;28;20031;-53
2021/08/01 03:44:44;;;;;;;10.63;7.40;;;14.70;99.90;;;;;;5070532;28;20040;-53
2021/08/01 03:47:10;;;;;;;7.97;6.70;;;14.70;99.90;;;;;;5071278;28;20545;-53
2021/08/01 03:49:36;;;;;;;7.85;6.28;;;14.70;99.90;;;;;;5071401;28;20177;-53
2021/08/01 03:52:01;;;;;;;12.68;6.68;;;14.70;99.90;;;;;;5071329;28;20047;-53
2021/08/01 03:54:27;;;;;;;10.10;7.63;;;14.70;99.90;;;;;;5070433;28;20082;-53
2021/08/01 03:56:53;;;;;;;10.05;6.72;;;14.70;99.90;;;;;;5071088;28;20039;-53
2021/08/01 03:59:18;;;;;;;11.32;7.95;;;14.70;99.90;;;;;;5071052;28;20033;-53
2021/08/01 04:01:44;;;;;;;9.25;6.75;;;14.80;99.90;;;;;;5071224;28;20111;-53
2021/08/01 04:04:10;;;;;;;12.10;7.13;;;14.80;99.90;;;;;;5070465;28;20367;-53
2021/08/01 04:06:36;;;;;;;15.07;6.45;;;14.80;99.90;;;;;;5070952;28;20113;-53
2021/08/01 04:09:04;;;;;;;7.32;6.50;;;14.80;99.90;;;;;;5070754;28;20032;-53
2021/08/01 04:11:31;;;;;;;9.55;6.25;;;14.90;99.90;;;;;;5070782;28;20117;-53
2021/08/01 04:13:56;;;;;;;8.07;6.18;;;15.00;99.90;;;;;;5070033;28;20024;-53
2021/08/01 04:16:22;;;;;;;10.38;6.45;;;15.00;99.90;;;;;;5070646;28;20035;-53
2021/08/01 04:18:47;;;;;;;12.98;7.30;;;15.10;99.90;;;;;;5070447;28;20032;-53
2021/08/01 04:21:13;;;;;;;8.82;7.05;;;15.10;99.90;;;;;;5069866;28;20070;-53
2021/08/01 04:23:39;;;;;;;7.53;5.75;;;15.10;99.90;;;;;;5068151;28;20029;-53
2021/08/01 04:26:07;;;;;;;10.90;6.60;;;15.20;99.90;;;;;;5068909;28;20506;-53
2021/08/01 04:28:33;;;;;;;8.05;6.20;;;15.10;99.90;;;;;;5069132;28;20060;-53
2021/08/01 04:30:59;;;;;;;10.38;6.93;;;15.10;99.90;;;;;;5070215;28;20024;-53
2021/08/01 04:33:25;;;;;;;11.75;6.95;;;15.10;99.90;;;;;;5069300;28;20020;-53
2021/08/01 04:35:50;;;;;;;7.90;6.80;;;15.10;99.90;;;;;;5069985;28;20421;-53
2021/08/01 04:38:16;;;;;;;10.55;6.47;;;15.10;99.90;;;;;;5069963;28;20020;-53
2021/08/01 04:40:42;;;;;;;11.13;6.72;;;15.10;99.90;;;;;;5068580;28;20078;-53
2021/08/01 04:43:09;;;;;;;8.82;5.85;;;15.10;99.90;;;;;;5070103;28;20036;-53
2021/08/01 04:45:34;;;;;;;8.25;5.97;;;15.10;99.90;;;;;;5067987;28;20020;-53
2021/08/01 04:48:00;;;;;;;7.78;5.80;;;15.10;99.90;;;;;;5069926;28;20032;-53
2021/08/01 04:50:25;;;;;;;11.80;6.75;;;15.20;99.90;;;;;;5069836;28;20074;-53
2021/08/01 04:52:52;;;;;;;8.38;6.32;;;15.20;99.90;;;;;;5070148;28;20496;-53
2021/08/01 04:55:18;;;;;;;7.72;5.95;;;15.20;99.90;;;;;;5069142;28;20171;-53
2021/08/01 04:57:44;;;;;;;10.77;6.22;;;15.20;99.90;;;;;;5069778;28;20043;-53
2021/08/01 05:00:11;;;;;;;6.38;5.63;;;15.30;99.90;;;;;;5069572;28;20470;-53
2021/08/01 05:02:36;;;;;;;6.45;5.70;;;15.30;99.90;;;;;;5069433;28;20383;-53
2021/08/01 05:05:03;;;;;;;8.38;6.95;;;15.40;99.90;;;;;;5068828;28;20050;-53
2021/08/01 05:07:29;;;;;;;14.27;7.22;;;15.40;99.90;;;;;;5069215;28;20107;-53
2021/08/01 05:09:55;;;;;;;6.82;5.55;;;15.40;99.90;;;;;;5069290;28;20024;-53
2021/08/01 05:12:20;;;;;;;12.95;6.18;;;15.40;99.90;;;;;;5069233;28;20063;-53
2021/08/01 05:14:46;;;;;;;11.38;7.28;;;15.50;99.90;;;;;;5069088;28;20548;-53
2021/08/01 05:17:12;;;;;;;8.23;6.20;;;15.60;99.90;;;;;;5069347;28;20027;-53
2021/08/01 05:19:39;;;;;;;10.82;6.03;;;15.60;99.90;;;;;;5069097;28;20074;-53
2021/08/01 05:22:05;;;;;;;11.57;6.53;;;15.70;99.90;;;;;;5069117;28;20415;-53
2021/08/01 05:24:30;;;;;;;6.45;5.85;;;15.70;99.90;;;;;;5067100;28;20082;-53
2021/08/01 05:26:56;;;;;;;11.27;6.25;;;15.80;99.90;;;;;;5069155;28;20103;-54
2021/08/01 05:29:21;;;;;;;8.05;5.60;;;15.80;99.90;;;;;;5069009;28;20035;-53
2021/08/01 05:31:47;;;;;;;7.50;6.15;;;15.90;99.90;;;;;;5068854;28;20021;-53
2021/08/01 05:34:12;;;;;;;7.15;5.82;;;16.00;99.90;;;;;;5067351;28;20079;-53
2021/08/01 05:36:38;;;;;;;7.85;5.68;;;16.00;99.90;;;;;;5068868;28;20028;-53
2021/08/01 05:39:03;;;;;;;11.57;5.85;;;16.00;99.90;;;;;;5068790;28;20099;-53
2021/08/01 05:41:29;;;;;;;8.88;6.13;;;16.10;99.90;;;;;;5068784;28;20033;-53
2021/08/01 05:43:54;;;;;;;9.13;5.75;;;16.10;99.90;;;;;;5067961;28;20263;-53
2021/08/01 05:46:20;;;;;;;8.43;5.72;;;16.20;99.90;;;;;;5068766;28;20025;-53
2021/08/01 05:48:45;;;;;;;11.48;5.95;;;16.30;99.90;;;;;;5068716;28;20074;-53
2021/08/01 05:51:11;;;;;;;7.15;5.80;;;16.30;99.90;;;;;;5068766;28;20074;-53
2021/08/01 05:53:36;;;;;;;12.68;6.40;;;16.30;99.90;;;;;;5067903;28;20020;-53
2021/08/01 05:56:09;;;;;;;8.35;6.53;;;16.30;99.90;;;;;;5068560;28;20501;-53
2021/08/01 05:58:35;;;;;;;11.73;7.28;;;16.40;99.90;;;;;;5067105;28;20546;-53
2021/08/01 06:01:06;;;;;;;12.80;8.20;;;16.40;99.90;;;;;;5068610;28;20109;-53
2021/08/01 06:03:32;;;;;;;8.20;5.70;;;16.40;99.90;;;;;;5067798;28;20615;-53
2021/08/01 06:06:10;;;;;;;10.27;6.20;;;16.50;99.90;;;;;;5068397;28;20036;-53
2021/08/01 06:08:36;;;;;;;10.25;7.07;;;16.60;99.90;;;;;;5068578;28;20179;-53
2021/08/01 06:11:04;;;;;;;11.10;7.07;;;16.60;99.90;;;;;;5068465;28;20100;-53
2021/08/01 06:13:30;;;;;;;10.82;7.22;;;16.70;99.90;;;;;;5066650;28;20486;-53
2021/08/01 06:15:55;;;;;;;9.25;6.50;;;16.70;99.90;;;;;;5068215;28;20029;-53
2021/08/01 06:18:21;;;;;;;10.48;6.60;;;16.80;99.90;;;;;;5068261;28;20417;-53
2021/08/01 06:20:46;;;;;;;8.85;6.60;;;16.90;99.90;;;;;;5068312;28;20021;-54
2021/08/01 06:23:12;;;;;;;14.60;7.65;;;17.00;99.90;;;;;;5068237;28;20036;-53
2021/08/01 06:25:38;;;;;;;7.88;6.22;;;17.00;99.90;;;;;;5066646;28;20089;-53
2021/08/01 06:28:04;;;;;;;11.38;7.57;;;17.10;99.90;;;;;;5068189;28;20331;-53
2021/08/01 06:30:30;;;;;;;8.25;7.07;;;17.10;99.90;;;;;;5068112;28;20067;-53
2021/08/01 06:32:56;;;;;;;11.35;6.53;;;17.10;99.90;;;;;;5067986;28;20063;-53
2021/08/01 06:35:21;;;;;;;14.35;6.43;;;17.20;99.90;;;;;;5067502;28;20016;-53
2021/08/01 06:37:47;;;;;;;8.63;6.78;;;17.20;99.90;;;;;;5068053;28;20382;-53
2021/08/01 06:40:12;;;;;;;8.18;5.90;;;17.40;99.90;;;;;;5068069;28;20073;-53
2021/08/01 06:42:38;;;;;;;7.10;6.03;;;17.50;99.90;;;;;;5067993;28;20375;-54
2021/08/01 06:45:04;;;;;;;9.82;6.43;;;17.70;99.90;;;;;;5068912;28;20038;-53
2021/08/01 06:47:29;;;;;;;8.65;6.28;;;17.80;99.90;;;;;;5072089;28;20522;-53
2021/08/01 06:49:55;;;;;;;10.27;5.28;;;17.90;99.90;;;;;;5070770;28;20028;-54
2021/08/01 06:52:20;;;;;;;7.85;4.75;;;18.10;99.90;;;;;;5072096;28;20112;-54
2021/08/01 06:54:46;;;;;;;8.68;5.60;;;18.30;99.90;;;;;;5071596;28;20028;-54
2021/08/01 06:57:11;;;;;;;7.18;5.60;;;18.40;99.90;;;;;;5070897;28;20025;-53
2021/08/01 06:59:37;;;;;;;7.63;5.22;;;18.60;99.90;;;;;;5072634;28;20028;-53
2021/08/01 07:02:02;;;;;;;7.18;4.95;;;18.60;99.90;;;;;;5072024;28;20047;-54
2021/08/01 07:04:28;;;;;;;10.02;5.32;;;18.80;99.90;;;;;;5069979;28;20070;-53
2021/08/01 07:06:53;;;;;;;8.82;5.75;;;18.80;99.90;;;;;;5071991;28;20071;-54
2021/08/01 07:09:19;;;;;;;7.25;4.75;;;19.00;99.90;;;;;;5072125;28;20479;-53
2021/08/01 07:11:44;;;;;;;12.15;5.47;;;19.10;99.90;;;;;;5071658;28;20051;-53
2021/08/01 07:14:09;;;;;;;7.88;5.43;;;19.30;99.90;;;;;;5070955;28;20058;-53
2021/08/01 07:16:42;;;;;;;7.25;4.40;;;19.30;99.90;;;;;;5071458;28;20036;-53
2021/08/01 07:19:07;;;;;;;7.00;4.20;;;19.50;99.90;;;;;;5071554;28;20482;-53
2021/08/01 07:21:33;;;;;;;4.75;4.10;;;19.60;99.90;;;;;;5071505;28;20094;-53
2021/08/01 07:23:58;;;;;;;12.13;4.95;;;19.70;99.90;;;;;;5070915;28;20024;-53
2021/08/01 07:26:24;;;;;;;6.63;4.10;;;19.80;99.90;;;;;;5071420;28;20033;-54
2021/08/01 07:28:49;;;;;;;6.20;3.88;;;19.90;99.90;;;;;;5071649;28;20044;-54
2021/08/01 07:31:14;;;;;;;4.68;3.75;;;19.90;99.90;;;;;;5071259;28;20055;-54
2021/08/01 07:33:40;;;;;;;5.05;3.45;;;19.90;99.90;;;;;;5070494;28;20021;-53
2021/08/01 07:36:05;;;;;;;8.45;3.50;;;20.00;99.90;;;;;;5069861;28;20491;-53
2021/08/01 07:38:31;;;;;;;5.47;3.40;;;20.20;99.90;;;;;;5071195;28;20024;-54
2021/08/01 07:40:56;;;;;;;3.88;3.45;;;20.50;99.90;;;;;;5071073;28;20123;-53
2021/08/01 07:43:22;;;;;;;4.28;3.38;;;20.60;99.90;;;;;;5070490;28;20029;-54
2021/08/01 07:45:47;;;;;;;6.93;3.60;;;20.50;99.90;;;;;;5071261;28;20090;-54
2021/08/01 07:48:13;;;;;;;6.80;3.75;;;20.70;99.90;;;;;;5069776;28;20051;-53
2021/08/01 07:50:39;;;;;;;6.43;3.83;;;20.70;99.90;;;;;;5069743;28;20395;-47
2021/08/01 07:53:04;;;;;;;4.50;3.22;;;20.50;99.90;;;;;;5070775;28;20036;-45
2021/08/01 07:55:30;;;;;;;4.07;3.42;;;20.40;99.90;;;;;;5070714;28;20023;-48
2021/08/01 07:57:56;;;;;;;5.68;3.13;;;20.40;99.90;;;;;;5070043;28;20017;-47
2021/08/01 08:00:21;;;;;;;6.43;3.53;;;20.30;99.90;;;;;;5070800;28;20513;-48
2021/08/01 08:02:47;;;;;;;4.78;3.20;;;20.40;99.90;;;;;;5069708;28;20040;-47
2021/08/01 08:05:13;;;;;;;5.18;3.38;;;20.40;99.90;;;;;;5070079;28;20020;-47
2021/08/01 08:07:39;;;;;;;5.93;3.03;;;20.40;99.90;;;;;;5069466;28;20113;-48
2021/08/01 08:10:05;;;;;;;5.28;3.03;;;20.30;99.90;;;;;;5070738;28;20035;-45
2021/08/01 08:12:31;;;;;;;5.57;3.17;;;20.30;99.90;;;;;;5069079;28;20029;-47
2021/08/01 08:14:56;;;;;;;4.30;3.22;;;20.40;99.90;;;;;;5069869;28;20370;-47
2021/08/01 08:17:22;;;;;;;5.45;3.30;;;20.40;99.90;;;;;;5070392;28;20390;-47
2021/08/01 08:19:48;;;;;;;3.90;3.30;;;20.20;99.90;;;;;;5070454;28;20044;-46
2021/08/01 08:22:13;;;;;;;5.22;3.67;;;20.30;99.90;;;;;;5070518;28;20024;-46
2021/08/01 08:24:39;;;;;;;7.88;4.00;;;20.40;99.90;;;;;;5068701;28;20021;-47
2021/08/01 08:27:05;;;;;;;4.50;3.15;;;20.40;99.90;;;;;;5070347;28;20143;-48
2021/08/01 08:29:32;;;;;;;4.82;3.42;;;20.60;99.90;;;;;;5068771;28;20021;-48
2021/08/01 08:31:58;;;;;;;4.90;3.40;;;20.70;99.90;;;;;;5070109;28;20024;-47
2021/08/01 08:34:24;;;;;;;4.20;3.20;;;20.80;99.90;;;;;;5068257;28;20386;-50
2021/08/01 08:36:51;;;;;;;5.68;3.20;;;21.10;99.90;;;;;;5068868;28;20078;-47
2021/08/01 08:39:20;;;;;;;3.95;3.10;;;21.20;99.90;;;;;;5070076;28;20032;-47
2021/08/01 08:41:47;;;;;;;6.80;3.60;;;21.40;99.90;;;;;;5068881;28;20020;-49
2021/08/01 08:44:13;;;;;;;3.90;3.28;;;21.50;99.90;;;;;;5068989;28;20063;-46
2021/08/01 08:46:39;;;;;;;5.53;3.47;;;21.50;99.90;;;;;;5068700;28;20081;-47
2021/08/01 08:49:10;;;;;;;3.85;3.03;;;21.50;99.90;;;;;;5068620;28;20032;-47
2021/08/01 08:51:36;;;;;;;;;;;21.50;99.90;;;;;;5070439;28;20163;-51
2021/08/01 08:54:03;;;;;;;4.32;3.00;;;21.40;99.90;;;;;;5069279;28;19908;-48
2021/08/01 08:56:29;;;;;;;4.97;3.30;;;21.60;99.90;;;;;;5069971;28;20028;-48
2021/08/01 08:58:56;;;;;;;3.90;2.95;;;21.90;99.00;;;;;;5070071;28;20030;-47
2021/08/01 09:01:22;;;;;;;4.28;2.70;;;22.40;98.10;;;;;;5069741;28;20031;-47
2021/08/01 09:03:48;;;;;;;2.50;2.30;;;22.70;97.60;;;;;;5069216;28;20029;-49
2021/08/01 09:06:14;;;;;;;5.90;2.60;;;23.00;96.90;;;;;;5069621;28;20017;-51
2021/08/01 09:08:40;;;;;;;6.90;3.33;;;23.10;96.60;;;;;;5069682;28;20218;-49
2021/08/01 09:11:06;;;;;;;3.35;2.63;;;22.80;96.50;;;;;;5069439;28;20028;-48
2021/08/01 09:13:47;;;;;;;4.25;2.80;;;22.70;96.30;;;;;;5068543;28;20112;-48
2021/08/01 09:16:14;;;;;;;8.25;3.10;;;22.70;97.00;;;;;;5068009;28;20023;-48
2021/08/01 09:18:40;;;;;;;7.97;3.05;;;23.00;96.50;;;;;;5067938;28;20032;-47
2021/08/01 09:21:06;;;;;;;4.03;3.20;;;23.20;96.30;;;;;;5069445;28;20143;-50
2021/08/01 09:23:35;;;;;;;5.30;2.60;;;23.60;94.40;;;;;;5068371;28;20094;-51
2021/08/01 09:26:03;;;;;;;5.10;2.40;;;24.60;93.10;;;;;;5068904;28;20078;-47
2021/08/01 09:28:29;;;;;;;3.00;2.30;;;24.70;92.00;;;;;;5069270;28;20024;-48
2021/08/01 09:30:57;;;;;;;3.72;2.70;;;25.00;91.50;;;;;;5067707;28;20039;-48
2021/08/01 09:33:44;;;;;;;2.40;2.20;;;24.80;90.80;;;;;;5068211;28;20031;-48
2021/08/01 09:36:18;;;;;;;3.72;2.40;;;25.10;90.60;;;;;;5069026;28;20172;-52
2021/08/01 09:38:51;;;;;;;5.63;3.20;;;25.10;90.30;;;;;;5068995;28;20024;-49
2021/08/01 09:41:22;;;;;;;2.78;2.50;;;25.30;89.10;;;;;;5068978;28;20028;-51
2021/08/01 09:44:02;;;;;;;2.72;2.22;;;26.00;89.70;;;;;;5068123;28;20067;-49
2021/08/01 09:46:48;;;;;;;3.28;2.40;;;26.90;87.90;;;;;;5069048;28;20032;-50
2021/08/01 09:49:19;;;;;;;3.10;2.30;;;27.30;82.90;;;;;;5068890;28;20041;-48
2021/08/01 09:51:45;;;;;;;3.47;2.65;;;27.10;80.70;;;;;;5067368;28;20097;-48
2021/08/01 09:54:13;;;;;;;2.08;1.90;;;26.70;79.90;;;;;;5067927;28;20107;-48
2021/08/01 09:56:50;;;;;;;3.38;2.45;;;26.10;80.20;;;;;;5067365;28;20025;-48
2021/08/01 09:59:21;;;;;;;2.95;2.28;;;25.70;82.20;;;;;;5068535;28;20032;-47
2021/08/01 10:01:48;;;;;;;3.28;2.50;;;25.30;82.60;;;;;;5067272;28;20023;-48
2021/08/01 10:04:37;;;;;;;5.50;2.80;;;25.20;85.40;;;;;;5067951;28;20540;-48
2021/08/01 10:07:09;;;;;;;4.57;2.72;;;25.50;83.30;;;;;;5067259;28;20366;-49
2021/08/01 10:09:36;;;;;;;4.70;2.58;;;25.80;80.30;;;;;;5068499;28;20032;-49
2021/08/01 10:12:02;;;;;;;4.00;2.47;;;26.20;81.30;;;;;;5067998;28;20025;-48
2021/08/01 10:14:29;;;;;;;5.15;2.38;;;26.10;78.20;;;;;;5067860;28;20666;-48
2021/08/01 10:16:55;;;;;;;2.85;2.33;;;26.10;77.20;;;;;;5066984;28;20031;-50
2021/08/01 10:19:21;;;;;;;4.13;2.53;;;25.50;79.30;;;;;;5068215;28;20100;-48
2021/08/01 10:21:54;;;;;;;3.55;2.55;;;25.10;80.80;;;;;;5068439;28;20136;-51
2021/08/01 10:24:28;;;;;;;3.33;2.50;;;24.90;78.80;;;;;;5067563;28;20104;-48
2021/08/01 10:26:59;;;;;;;4.80;2.60;;;25.00;81.00;;;;;;5068515;28;20029;-48
2021/08/01 10:29:45;;;;;;;3.85;2.70;;;25.10;78.90;;;;;;5068648;28;20421;-49
2021/08/01 10:32:12;;;;;;;3.22;2.80;;;25.00;80.20;;;;;;5068121;28;20459;-49
2021/08/01 10:34:55;;;;;;;4.32;3.03;;;25.10;77.80;;;;;;5067666;28;20100;-51
2021/08/01 10:37:29;;;;;;;6.53;3.28;;;24.70;78.20;;;;;;5068120;28;20028;-50
2021/08/01 10:39:56;;;;;;;3.13;2.70;;;25.10;80.30;;;;;;5068201;28;20021;-48
2021/08/01 10:42:24;;;;;;;4.53;3.38;;;25.00;79.80;;;;;;5068054;28;20020;-49
2021/08/01 10:44:50;;;;;;;2.67;2.40;;;25.20;79.70;;;;;;5067514;28;20078;-48
2021/08/01 10:47:17;;;;;;;3.25;2.55;;;25.80;78.70;;;;;;5068143;28;20058;-49
2021/08/01 10:49:46;;;;;;;3.38;2.70;;;26.00;77.10;;;;;;5068313;28;20017;-48
2021/08/01 10:52:14;;;;;;;3.45;2.17;;;26.00;78.90;;;;;;5068283;28;20097;-49
2021/08/01 10:54:55;;;;;;;3.42;3.05;;;26.00;76.40;;;;;;5067849;28;20038;-50
2021/08/01 10:57:22;;;;;;;3.33;2.45;;;25.90;74.80;;;;;;5066790;28;20391;-48
2021/08/01 10:59:47;;;;;;;3.63;2.45;;;26.70;75.00;;;;;;5068058;28;20062;-49
2021/08/01 11:02:15;;;;;;;2.80;2.47;;;27.50;76.30;;;;;;5066576;28;20028;-48
2021/08/01 11:04:43;;;;;;;3.63;2.40;;;27.80;73.10;;;;;;5067105;28;20023;-49
2021/08/01 11:07:09;;;;;;;3.92;2.85;;;27.10;72.50;;;;;;5067771;28;20115;-48
2021/08/01 11:09:34;;;;;;;4.07;2.92;;;27.10;73.70;;;;;;5068221;28;20357;-49
2021/08/01 11:12:19;;;;;;;2.88;2.25;;;27.30;71.10;;;;;;5067776;28;20048;-49
2021/08/01 11:14:49;;;;;;;4.32;2.70;;;27.20;71.10;;;;;;5067169;28;20087;-48
2021/08/01 11:17:17;;;;;;;4.57;3.30;;;26.70;72.10;;;;;;5066309;28;20111;-48
2021/08/01 11:19:43;;;;;;;5.40;3.00;;;25.80;74.20;;;;;;5067757;28;20052;-49
2021/08/01 11:22:41;;;;;;;4.50;2.97;;;25.20;74.70;;;;;;5067724;28;20102;-50
2021/08/01 11:25:23;;;;;;;5.10;2.90;;;24.40;77.30;;;;;;5066912;28;20486;-48
2021/08/01 11:28:08;;;;;;;2.65;2.40;;;23.80;79.70;;;;;;5067701;28;20046;-47
2021/08/01 11:30:58;;;;;;;5.53;3.17;;;23.60;80.20;;;;;;5067874;28;20032;-49
2021/08/01 11:33:34;;;;;;;3.75;3.20;;;23.30;82.70;;;;;;5070512;28;20111;-48
2021/08/01 11:36:17;;;;;;;3.65;2.75;;;22.90;82.90;;;;;;5071340;28;20037;-47
2021/08/01 11:38:51;;;;;;;5.25;3.22;;;22.70;84.10;;;;;;5071231;28;20026;-48
2021/08/01 11:41:35;;;;;;;4.78;3.60;;;22.60;86.00;;;;;;5071101;28;20499;-48
2021/08/01 11:44:14;;;;;;;3.90;3.30;;;22.20;87.70;;;;;;5069232;28;20024;-47
2021/08/01 11:46:58;;;;;;;5.22;3.38;;;21.90;90.10;;;;;;5071101;28;20516;-48
2021/08/01 11:49:30;;;;;;;4.38;3.40;;;21.50;92.50;;;;;;5070983;28;20055;-50
2021/08/01 11:51:59;;;;;;;3.75;2.92;;;21.40;91.70;;;;;;5070974;28;20164;-48
2021/08/01 11:54:38;;;;;;;3.33;2.92;;;21.30;91.60;;;;;;5070132;28;20028;-47
2021/08/01 11:57:06;;;;;;;2.77;2.53;;;21.30;92.00;;;;;;5070915;28;20056;-47
2021/08/01 11:59:32;;;;;;;3.05;2.30;;;21.20;90.20;;;;;;5070935;28;20031;-47
2021/08/01 12:01:59;;;;;;;4.28;2.20;;;21.30;91.20;;;;;;5071006;28;20045;-48
2021/08/01 12:04:25;;;;;;;3.55;2.25;;;21.60;90.60;;;;;;5070315;28;20060;-47
2021/08/01 12:06:55;;;;;;;6.28;2.65;;;22.00;89.90;;;;;;5071011;28;20025;-48
2021/08/01 12:09:29;;;;;;;5.63;2.88;;;22.40;90.30;;;;;;5070833;28;20374;-49
2021/08/01 12:12:01;;;;;;;2.95;2.55;;;22.40;90.10;;;;;;5069340;28;20056;-47
2021/08/01 12:14:31;;;;;;;5.13;2.97;;;23.00;90.00;;;;;;5069895;28;20115;-47
2021/08/01 12:17:03;;;;;;;4.55;2.13;;;23.20;88.90;;;;;;5070501;28;20025;-48
2021/08/01 12:19:32;;;;;;;2.85;2.50;;;23.40;88.90;;;;;;5070676;28;20371;-48
2021/08/01 12:22:09;;;;;;;3.10;2.60;;;24.10;87.40;;;;;;5069443;28;20040;-47
2021/08/01 12:24:48;;;;;;;3.08;2.78;;;24.80;86.10;;;;;;5068453;28;20373;-48
2021/08/01 12:27:17;;;;;;;3.13;2.15;;;24.60;81.70;;;;;;5070388;28;20047;-51
2021/08/01 12:29:53;;;;;;;2.67;2.00;;;24.90;79.40;;;;;;5068970;28;20021;-49
2021/08/01 12:32:22;;;;;;;2.20;2.00;;;24.80;79.60;;;;;;5068784;28;20017;-49
2021/08/01 12:34:48;;;;;;;2.20;1.98;;;25.30;77.90;;;;;;5069699;28;20020;-52
2021/08/01 12:37:14;;;;;;;1.98;1.88;;;25.40;76.70;;;;;;5070129;28;20052;-48
2021/08/01 12:39:44;;;;;;;2.33;2.03;;;25.20;78.40;;;;;;5069960;28;20110;-50
2021/08/01 12:42:09;;;;;;;1.90;1.80;;;25.00;80.50;;;;;;5070244;28;20020;-47
2021/08/01 12:44:35;;;;;;;5.38;2.80;;;25.20;78.90;;;;;;5069194;28;20044;-50
2021/08/01 12:47:07;;;;;;;2.90;2.55;;;24.70;77.40;;;;;;5069762;28;20195;-48
2021/08/01 12:49:33;;;;;;;3.97;2.60;;;24.80;77.90;;;;;;5069790;28;20055;-50
2021/08/01 12:51:59;;;;;;;4.68;2.60;;;24.90;78.30;;;;;;5069837;28;20029;-48